Quetzalcoatl International Airport
MMNL : now visible

Airfield :











YOU CAN JOIN US ON...

 
LOGIN :

Register | Disclaimer

   EN    FR    IT 

 









Legend :    VFR   Marginal VFR   IFR   Intensive IFR   Very Intensive IFR
Visi :
Ceiling :
>= 8 km
>= 3000ft
5 to 8 km
1000 to 3000 ft
1500m to 5 km
500 to 1000 ft
800 to 1500m
200 to 500 ft
< 800m
< 200 ft
Symbols :   Thunderstorms  Fog  Heavy snow  Heavy precipitations  Wind > 20 kt






- Airport Elevation : 484 ft
- IATA code : NLD


MMNL - Quetzalcoatl International

CURRENT METAR :
  • 090041Z 00000KT 10SM FEW200 21/16 A2990 RMK 8/002

EXPIRED METARs :
  • 082341Z 00000KT 10SM SCT200 24/16 A2988 RMK SLP107 57008 995 8/002
  • 082241Z 18005KT 10SM SCT200 26/16 A2989 RMK 8/002

TAF TAF MMNL
Valid from the 08 at 18:00 until the 09 at 18:00 UTC


081636Z 0818/0918 15010KT P6SM BKN010
FM081900 15012KT P6SM SKC
FM090300 14010KT P6SM BKN300
BECMG 0905/0906 BKN010 BKN300
FM090800 15010KT 3SM BR HZ BKN004
TEMPO 0909/0913 2SM BR HZ OVC002
FM091500 12008KT 5SM HZ BKN010



MET'MAP, your aeronautical weather chart ! - Copyright ORBIFLY December 2007 - Disclaimer

ORBIFLY MET'MAP TEAM :

Programming & Development : Alexandra Zaïnal
Concept & original design : Baudouin d'Aumeries
Assistance for programming : Marc-Olivier Méhu
Technical & hardware support : Manuel Goepfert

Contact : metmap@orbifly.com




SOURCES & CREDITS :

   NOAA       Earth
Advisory